createdAt,value
2022-10-17T00:00:07.508Z,33.3
2022-10-17T00:02:24.954Z,29.1
2022-10-17T00:04:42.596Z,34
2022-10-17T00:07:00.152Z,29.1
2022-10-17T00:09:17.555Z,34.6
2022-10-17T00:11:35.033Z,29.1
2022-10-17T00:13:52.676Z,29.4
2022-10-17T00:16:09.984Z,29.8
2022-10-17T00:18:27.555Z,30.2
2022-10-17T00:20:45.129Z,29.6
2022-10-17T00:23:02.517Z,33.4
2022-10-17T00:25:19.990Z,28.7
2022-10-17T00:27:38.214Z,33.7
2022-10-17T00:29:55.148Z,28.6
2022-10-17T00:32:12.607Z,29.7
2022-10-17T00:34:30.121Z,29.9
2022-10-17T00:36:47.650Z,30
2022-10-17T00:39:05.122Z,33.1
2022-10-17T00:41:22.677Z,29
2022-10-17T00:43:40.084Z,29.5
2022-10-17T00:45:57.710Z,33.3
2022-10-17T00:48:15.108Z,29
2022-10-17T00:50:32.742Z,34.1
2022-10-17T00:52:50.343Z,29.6
2022-10-17T00:55:07.745Z,29.6
2022-10-17T00:57:25.272Z,30.3
2022-10-17T00:59:42.786Z,29.6
2022-10-17T01:02:18.865Z,29.2
2022-10-17T01:04:36.313Z,29.4
2022-10-17T01:06:53.895Z,29.5
2022-10-17T01:09:11.340Z,29.6
2022-10-17T01:11:29.133Z,29.3
2022-10-17T01:13:46.318Z,30.1
2022-10-17T01:16:03.809Z,29.5
2022-10-17T01:18:21.334Z,29.6
2022-10-17T01:20:38.861Z,29
2022-10-17T01:22:56.397Z,29.4
2022-10-17T01:25:13.879Z,29.4
2022-10-17T01:27:31.381Z,29.4
2022-10-17T01:29:48.891Z,33.4
2022-10-17T01:32:06.268Z,28.6
2022-10-17T01:34:23.828Z,29.4
2022-10-17T01:36:41.231Z,30.1
2022-10-17T01:38:58.836Z,33.4
2022-10-17T01:41:16.338Z,29.2
2022-10-17T01:43:33.852Z,29.6
2022-10-17T01:45:51.351Z,30.3
2022-10-17T01:48:08.972Z,29.6
2022-10-17T01:50:26.343Z,29.6
2022-10-17T01:52:43.953Z,29.3
2022-10-17T01:55:01.387Z,29.4
2022-10-17T01:57:19.216Z,29.8
2022-10-17T01:59:36.459Z,29.4
2022-10-17T02:01:54.002Z,33.3
2022-10-17T02:04:11.439Z,28.8
2022-10-17T02:06:28.974Z,29.6
2022-10-17T02:08:46.443Z,30.1
2022-10-17T02:11:04.168Z,29.7
2022-10-17T02:13:21.430Z,29.6
2022-10-17T02:15:39.010Z,29.8
2022-10-17T02:17:56.614Z,29.8
2022-10-17T02:20:14.830Z,29.8
2022-10-17T02:22:31.795Z,33.4
2022-10-17T02:24:49.387Z,34.3
2022-10-17T02:27:07.193Z,29.4
2022-10-17T02:29:24.779Z,34.2
2022-10-17T02:31:42.805Z,29.8
2022-10-17T02:34:00.473Z,29.2
2022-10-17T02:36:17.919Z,29.4
2022-10-17T02:38:35.461Z,33.7
2022-10-17T02:40:53.265Z,33.9
2022-10-17T02:43:11.291Z,29.5
2022-10-17T02:45:28.678Z,34.2
2022-10-17T02:47:46.419Z,29.9
2022-10-17T02:50:03.787Z,29.7
2022-10-17T02:52:21.637Z,29.5
2022-10-17T02:54:39.658Z,30.2
2022-10-17T02:56:56.921Z,29.2
2022-10-17T02:59:14.379Z,29.2
2022-10-17T03:01:32.157Z,29.3
2022-10-17T03:03:50.222Z,29.9
2022-10-17T03:06:07.356Z,30.1
2022-10-17T03:08:24.860Z,29.4
2022-10-17T03:10:42.335Z,33.4
2022-10-17T03:13:00.231Z,29.4
2022-10-17T03:17:35.583Z,29.4
2022-10-17T03:19:53.274Z,33.6
2022-10-17T03:22:10.870Z,28.6
2022-10-17T03:24:28.511Z,34.3
2022-10-17T03:29:04.786Z,29.9
2022-10-17T03:31:21.701Z,29.3
2022-10-17T03:33:39.189Z,29.7
2022-10-17T03:35:56.701Z,29.5
2022-10-17T03:38:14.500Z,34
2022-10-17T03:40:32.141Z,29.4
2022-10-17T03:42:49.973Z,29.2
2022-10-17T03:45:07.847Z,29.6
2022-10-17T03:47:25.137Z,29.3
2022-10-17T03:49:42.774Z,29.9
2022-10-17T03:52:00.476Z,29.9
2022-10-17T03:54:18.040Z,29.6
2022-10-17T03:56:35.655Z,29.1
2022-10-17T03:58:53.880Z,33.4
2022-10-17T04:01:10.988Z,29.1
2022-10-17T04:03:28.654Z,29.7
2022-10-17T04:05:46.236Z,29.1
2022-10-17T04:08:04.795Z,29.6
2022-10-17T04:10:21.486Z,33.8
2022-10-17T04:12:39.340Z,29.1
2022-10-17T04:14:57.050Z,30
2022-10-17T04:17:14.618Z,30.1
2022-10-17T04:19:32.121Z,33.9
2022-10-17T04:21:49.697Z,29.2
2022-10-17T04:24:07.514Z,29.4
2022-10-17T04:26:25.047Z,33.8
2022-10-17T04:28:42.914Z,29.4
2022-10-17T04:31:00.406Z,29.2
2022-10-17T04:33:18.208Z,33.9
2022-10-17T04:35:35.747Z,29.4
2022-10-17T04:37:53.594Z,34.4
2022-10-17T04:40:11.157Z,29.5
2022-10-17T04:42:29.061Z,34.2
2022-10-17T04:44:46.792Z,34
2022-10-17T04:47:04.472Z,34.5
2022-10-17T04:49:22.375Z,29.6
2022-10-17T04:51:39.952Z,29.4
2022-10-17T04:53:57.863Z,29.8
2022-10-17T04:56:15.428Z,34.2
2022-10-17T05:00:51.553Z,29.4
2022-10-17T05:03:08.512Z,29.2
2022-10-17T05:05:26.685Z,33.9
2022-10-17T05:07:43.674Z,30.1
2022-10-17T05:10:01.658Z,29.1
2022-10-17T05:12:19.062Z,29.8
2022-10-17T05:14:36.760Z,30
2022-10-17T05:16:54.252Z,29.5
2022-10-17T05:19:12.567Z,29
2022-10-17T05:23:49.059Z,30.2
2022-10-17T05:26:06.111Z,30.3
2022-10-17T05:28:23.600Z,29.9
2022-10-17T05:30:42.590Z,30.2
2022-10-17T05:33:00.162Z,29.8
2022-10-17T05:35:18.034Z,34.6
2022-10-17T05:37:35.532Z,31.1
2022-10-17T05:39:53.379Z,30.3
2022-10-17T05:42:10.939Z,35.7
2022-10-17T05:44:28.719Z,31.4
2022-10-17T05:46:46.598Z,31.3
2022-10-17T05:49:10.612Z,35.6
2022-10-17T05:51:22.255Z,32.5
2022-10-17T05:55:57.389Z,33.6
2022-10-17T05:58:17.819Z,32.9
2022-10-17T06:00:39.441Z,33.4
2022-10-17T06:02:57.221Z,33.1
2022-10-17T06:05:14.832Z,33.4
2022-10-17T06:07:32.921Z,33.6
2022-10-17T06:09:49.890Z,37
2022-10-17T06:12:07.624Z,32.6
2022-10-17T06:14:25.445Z,33.8
2022-10-17T06:16:43.133Z,34.1
2022-10-17T06:19:00.598Z,36.6
2022-10-17T06:23:36.253Z,33.5
2022-10-17T06:25:53.881Z,33.3
2022-10-17T06:28:11.608Z,33
2022-10-17T06:30:29.261Z,32.8
2022-10-17T06:32:47.227Z,32.6
2022-10-17T06:35:04.327Z,34.9
2022-10-17T06:37:22.154Z,32.1
2022-10-17T06:39:39.827Z,32.9
2022-10-17T06:41:57.495Z,34.9
2022-10-17T06:44:15.056Z,32.2
2022-10-17T06:46:32.496Z,34.8
2022-10-17T06:48:50.039Z,35.8
2022-10-17T06:51:07.811Z,31.6
2022-10-17T06:53:25.331Z,34.9
2022-10-17T06:55:43.170Z,32.6
2022-10-17T06:58:00.971Z,32.7
2022-10-17T07:00:18.351Z,32.3
2022-10-17T07:02:35.892Z,32.9
2022-10-17T07:04:53.649Z,32.8
2022-10-17T07:07:11.246Z,32.9
2022-10-17T07:09:28.712Z,32.5
2022-10-17T07:11:46.589Z,34
2022-10-17T07:14:04.379Z,32.4
2022-10-17T07:16:21.344Z,32.3
2022-10-17T07:18:39.208Z,33
2022-10-17T07:20:56.482Z,33
2022-10-17T07:23:14.067Z,33
2022-10-17T07:25:31.957Z,34.6
2022-10-17T07:27:49.005Z,32.1
2022-10-17T07:30:06.615Z,33
2022-10-17T07:32:24.031Z,33.1
2022-10-17T07:34:41.487Z,34.3
2022-10-17T07:36:59.030Z,32.5
2022-10-17T07:39:16.698Z,33.1
2022-10-17T07:41:34.094Z,32.4
2022-10-17T07:43:51.822Z,32.8
2022-10-17T07:46:09.464Z,33.2
2022-10-17T07:48:26.839Z,30.4
2022-10-17T07:50:45.116Z,30.3
2022-10-17T07:53:01.639Z,31
2022-10-17T07:55:18.934Z,30.8
2022-10-17T07:57:36.446Z,30.6
2022-10-17T07:59:53.860Z,30.6
2022-10-17T08:02:11.205Z,30.6
2022-10-17T08:04:28.745Z,30.6
2022-10-17T08:06:46.202Z,31.2
2022-10-17T08:09:07.378Z,30.6
2022-10-17T08:11:24.721Z,30.8
2022-10-17T08:13:41.981Z,30.6
2022-10-17T08:18:16.610Z,30.9
2022-10-17T08:20:33.753Z,33.9
2022-10-17T08:22:51.016Z,30.8
2022-10-17T08:25:08.338Z,34.5
2022-10-17T08:27:25.574Z,34.4
2022-10-17T08:29:43.015Z,34.6
2022-10-17T08:32:01.898Z,34.7
2022-10-17T08:34:17.811Z,35.1
2022-10-17T08:36:35.337Z,34.8
2022-10-17T08:38:53.218Z,34.9
2022-10-17T08:41:09.938Z,35.3
2022-10-17T08:43:27.485Z,35.4
2022-10-17T08:45:44.942Z,35.4
2022-10-17T08:48:02.329Z,35.2
2022-10-17T08:50:20.091Z,35.3
2022-10-17T08:52:37.199Z,34.8
2022-10-17T08:57:21.546Z,35
2022-10-17T08:59:39.000Z,35.6
2022-10-17T09:01:56.544Z,35.3
2022-10-17T09:04:13.863Z,35.4
2022-10-17T09:06:31.441Z,35.1
2022-10-17T09:08:48.831Z,35.4
2022-10-17T09:11:06.336Z,35.3
2022-10-17T09:13:23.879Z,35.3
2022-10-17T09:17:58.716Z,35.1
2022-10-17T09:20:16.228Z,35.4
2022-10-17T09:22:33.991Z,35.4
2022-10-17T09:24:51.346Z,35.3
2022-10-17T09:27:08.859Z,35.8
2022-10-17T09:29:29.673Z,35.4
2022-10-17T09:31:47.545Z,35.7
2022-10-17T09:34:27.446Z,35.3
2022-10-17T09:36:43.880Z,35.6
2022-10-17T09:39:01.345Z,35.6
2022-10-17T09:41:43.997Z,35.3
2022-10-17T09:43:49.847Z,35.3
2022-10-17T09:46:07.643Z,35.6
2022-10-17T09:48:25.019Z,35.5
2022-10-17T09:50:42.615Z,35.1
2022-10-17T09:53:03.907Z,35.7
2022-10-17T09:55:21.389Z,35.4
2022-10-17T09:57:38.997Z,35.8
2022-10-17T09:59:56.526Z,35.6
2022-10-17T10:02:14.259Z,35.4
2022-10-17T10:04:41.499Z,35.7
2022-10-17T10:06:53.435Z,35.4
2022-10-17T10:09:10.430Z,35.8
2022-10-17T10:11:27.948Z,35.6
2022-10-17T10:13:45.456Z,35.3
2022-10-17T10:16:03.660Z,35.6
2022-10-17T10:18:20.815Z,35.3
2022-10-17T10:20:38.384Z,35.6
2022-10-17T10:22:58.184Z,35.9
2022-10-17T10:25:13.442Z,35.7
2022-10-17T10:29:48.611Z,35.6
2022-10-17T10:32:06.274Z,35.3
2022-10-17T10:34:23.652Z,35.6
2022-10-17T10:36:42.009Z,35.4
2022-10-17T10:39:00.179Z,35.7
2022-10-17T10:41:16.533Z,35.5
2022-10-17T10:43:34.064Z,35.2
2022-10-17T10:46:04.204Z,35.3
2022-10-17T10:48:21.768Z,35.4
2022-10-17T10:50:43.041Z,35.7
2022-10-17T10:52:57.595Z,35.4
2022-10-17T10:55:15.143Z,35.9
2022-10-17T10:57:32.550Z,35.6
2022-10-17T10:59:49.799Z,35.5
2022-10-17T11:02:07.308Z,35.3
2022-10-17T11:04:25.082Z,35.9
2022-10-17T11:06:42.512Z,35.5
2022-10-17T11:09:00.073Z,35.6
2022-10-17T11:11:17.772Z,35.3
2022-10-17T11:13:35.822Z,35.1
2022-10-17T11:15:52.821Z,35.2
2022-10-17T11:18:10.472Z,35.4
2022-10-17T11:20:28.040Z,35.4
2022-10-17T11:22:45.706Z,35.7
2022-10-17T11:25:03.351Z,35.7
2022-10-17T11:27:21.706Z,35.2
2022-10-17T11:29:38.741Z,36.3
2022-10-17T11:31:56.687Z,35.8
2022-10-17T11:34:14.175Z,35.3
2022-10-17T11:36:31.993Z,35.7
2022-10-17T11:38:49.620Z,35.7
2022-10-17T11:41:07.380Z,35.5
2022-10-17T11:43:25.059Z,35.9
2022-10-17T11:45:42.647Z,35.6
2022-10-17T11:48:00.410Z,35.6
2022-10-17T11:53:55.681Z,35.8
2022-10-17T11:56:13.353Z,35
2022-10-17T11:58:31.325Z,35.5
2022-10-17T12:00:49.037Z,35.4
2022-10-17T12:03:05.961Z,35.2
2022-10-17T12:05:23.709Z,35.6
2022-10-17T12:09:58.837Z,35.1
2022-10-17T12:12:16.436Z,35.4
2022-10-17T12:14:34.645Z,35.1
2022-10-17T12:16:51.812Z,35
2022-10-17T12:19:09.292Z,35.7
2022-10-17T12:21:31.073Z,35.6
2022-10-17T12:23:44.391Z,35.3
2022-10-17T12:28:19.669Z,34.8
2022-10-17T12:30:37.227Z,35.4
2022-10-17T12:33:07.909Z,35.1
2022-10-17T12:35:24.531Z,36.4
2022-10-17T12:37:42.002Z,35.7
2022-10-17T12:39:59.452Z,34.9
2022-10-17T12:42:17.100Z,35.1
2022-10-17T12:44:35.050Z,35.3
2022-10-17T12:49:10.002Z,34.8
2022-10-17T12:51:43.822Z,35.3
2022-10-17T12:54:01.851Z,35.8
2022-10-17T12:56:20.170Z,35
2022-10-17T12:58:37.763Z,34.8
2022-10-17T13:01:12.047Z,35.4
2022-10-17T13:03:27.640Z,34.8
2022-10-17T13:05:45.476Z,34.8
2022-10-17T13:08:02.762Z,34.3
2022-10-17T13:10:20.445Z,34.8
2022-10-17T13:12:41.079Z,34.9
2022-10-17T13:14:55.511Z,35.1
2022-10-17T13:17:13.037Z,34.8
2022-10-17T13:19:30.824Z,35.1
2022-10-17T13:21:48.306Z,35.2
2022-10-17T13:24:05.831Z,35
2022-10-17T13:26:23.445Z,34.5
2022-10-17T13:28:41.129Z,34.9
2022-10-17T13:30:58.680Z,34.6
2022-10-17T13:33:16.390Z,35.3
2022-10-17T13:35:55.691Z,35
2022-10-17T13:40:50.241Z,34.9
2022-10-17T13:43:23.832Z,34.9
2022-10-17T13:45:41.327Z,34.9
2022-10-17T13:48:09.807Z,34.8
2022-10-17T13:50:43.924Z,34.8
2022-10-17T13:52:52.742Z,34.9
2022-10-17T13:55:11.789Z,35.4
2022-10-17T13:57:35.145Z,35
2022-10-17T13:59:52.828Z,34.9
2022-10-17T14:02:10.327Z,34.8
2022-10-17T14:04:36.215Z,35.1
2022-10-17T14:07:07.412Z,35.3
2022-10-17T14:09:43.545Z,35
2022-10-17T14:12:01.027Z,34.7
2022-10-17T14:14:18.666Z,34.7
2022-10-17T14:16:43.901Z,34.5
2022-10-17T14:19:01.670Z,35.1
2022-10-17T14:22:16.503Z,34.6
2022-10-17T14:24:41.287Z,34.9
2022-10-17T14:26:58.877Z,34.9
2022-10-17T14:29:16.547Z,35.2
2022-10-17T14:31:43.973Z,34.9
2022-10-17T14:34:02.215Z,35.1
2022-10-17T14:36:33.878Z,35.3
2022-10-17T14:38:51.394Z,34.9
2022-10-17T14:41:37.689Z,34.7
2022-10-17T14:43:48.857Z,35.1
2022-10-17T14:46:03.505Z,33.6
2022-10-17T14:50:50.946Z,31.7
2022-10-17T14:53:18.113Z,34
2022-10-17T14:55:35.411Z,34.2
2022-10-17T14:57:52.968Z,33.8
2022-10-17T15:00:26.242Z,30.6
2022-10-17T15:02:43.641Z,33.6
2022-10-17T15:05:01.373Z,34.4
2022-10-17T15:07:18.854Z,34.4
2022-10-17T15:09:36.217Z,34.7
2022-10-17T15:11:53.570Z,33.5
2022-10-17T15:14:17.873Z,33.5
2022-10-17T15:16:35.433Z,34.6
2022-10-17T15:18:53.783Z,34.7
2022-10-17T15:23:30.239Z,34.6
2022-10-17T15:25:47.797Z,34.9
2022-10-17T15:30:22.944Z,34.7
2022-10-17T15:32:40.469Z,34.6
2022-10-17T15:34:57.895Z,34.2
2022-10-17T15:37:15.524Z,34.6
2022-10-17T15:39:32.677Z,34
2022-10-17T15:41:50.199Z,33.6
2022-10-17T15:44:07.711Z,29.6
2022-10-17T15:46:25.344Z,30.6
2022-10-17T15:48:42.515Z,30.5
2022-10-17T15:50:59.999Z,30
2022-10-17T15:53:17.399Z,30.1
2022-10-17T15:57:52.237Z,30.3
2022-10-17T16:00:12.840Z,30
2022-10-17T16:02:26.998Z,30.1
2022-10-17T16:04:44.732Z,30.1
2022-10-17T16:07:01.818Z,30.4
2022-10-17T16:09:19.181Z,30
2022-10-17T16:11:36.526Z,30.1
2022-10-17T16:13:54.072Z,30.1
2022-10-17T16:16:11.414Z,29.9
2022-10-17T16:18:28.767Z,29.9
2022-10-17T16:20:46.091Z,29.9
2022-10-17T16:23:03.455Z,30.1
2022-10-17T16:25:20.879Z,30.3
2022-10-17T16:27:38.462Z,31.9
2022-10-17T16:32:13.697Z,33.5
2022-10-17T16:34:31.187Z,30.8
2022-10-17T16:36:48.814Z,33.8
2022-10-17T16:39:06.491Z,31.2
2022-10-17T16:41:24.288Z,31.1
2022-10-17T16:43:42.021Z,31.9
2022-10-17T16:45:59.656Z,31.4
2022-10-17T16:48:17.106Z,33.3
2022-10-17T16:52:52.529Z,33.8
2022-10-17T16:55:10.174Z,30.8
2022-10-17T16:57:27.809Z,31.2
2022-10-17T16:59:45.542Z,33.6
2022-10-17T17:02:03.114Z,34.2
2022-10-17T17:04:21.065Z,30.3
2022-10-17T17:06:38.819Z,31.6
2022-10-17T17:08:56.686Z,31.6
2022-10-17T17:11:14.349Z,31.6
2022-10-17T17:13:32.218Z,31.8
2022-10-17T17:15:49.884Z,31.6
2022-10-17T17:18:12.754Z,31.8
2022-10-17T17:20:30.553Z,31.6
2022-10-17T17:22:48.151Z,31.5
2022-10-17T17:25:05.803Z,32.1
2022-10-17T17:27:23.350Z,31.8
2022-10-17T17:29:40.976Z,31.6
2022-10-17T17:31:58.654Z,31.7
2022-10-17T17:34:17.292Z,31.3
2022-10-17T17:36:34.140Z,31.4
2022-10-17T17:38:51.507Z,31.8
2022-10-17T17:41:09.242Z,31.4
2022-10-17T17:43:26.818Z,31.4
2022-10-17T17:45:44.569Z,31.8
2022-10-17T17:48:02.274Z,31.3
2022-10-17T17:50:20.072Z,31.4
2022-10-17T17:52:37.375Z,31.3
2022-10-17T17:54:55.151Z,31.6
2022-10-17T17:57:12.778Z,31.4
2022-10-17T17:59:30.479Z,31.4
2022-10-17T18:04:05.722Z,31.2
2022-10-17T18:06:23.791Z,31.4
2022-10-17T18:08:41.041Z,31.2
2022-10-17T18:10:58.613Z,31.8
2022-10-17T18:13:16.381Z,31.5
2022-10-17T18:15:33.815Z,31.4
2022-10-17T18:17:51.367Z,33.4
2022-10-17T18:20:09.058Z,30.9
2022-10-17T18:22:26.879Z,34.1
2022-10-17T18:24:44.423Z,30.3
2022-10-17T18:27:02.124Z,31.3
2022-10-17T18:29:19.734Z,30.8
2022-10-17T18:31:37.250Z,31.3
2022-10-17T18:33:54.965Z,33.8
2022-10-17T18:36:12.436Z,34.3
2022-10-17T18:38:30.216Z,30.7
2022-10-17T18:40:49.917Z,30.9
2022-10-17T18:43:05.439Z,31.1
2022-10-17T18:45:23.135Z,33.4
2022-10-17T18:47:40.615Z,30.6
2022-10-17T18:49:58.268Z,31.6
2022-10-17T18:52:15.880Z,33.4
2022-10-17T18:54:33.483Z,29.8
2022-10-17T18:56:51.234Z,31.1
2022-10-17T18:59:08.885Z,31.1
2022-10-17T19:01:26.900Z,30.7
2022-10-17T19:03:44.365Z,31.9
2022-10-17T19:06:02.142Z,33.6
2022-10-17T19:08:19.959Z,34
2022-10-17T19:10:37.515Z,34.3
2022-10-17T19:12:55.283Z,30.8
2022-10-17T19:15:13.019Z,30.7
2022-10-17T19:17:31.212Z,31.4
2022-10-17T19:19:48.753Z,31.6
2022-10-17T19:22:06.361Z,33.4
2022-10-17T19:26:42.064Z,31.8
2022-10-17T19:28:59.511Z,33.5
2022-10-17T19:31:17.970Z,34.4
2022-10-17T19:33:34.953Z,34.6
2022-10-17T19:35:52.853Z,34.6
2022-10-17T19:38:10.520Z,30.9
2022-10-17T19:40:28.374Z,31.1
2022-10-17T19:42:46.362Z,31.6
2022-10-17T19:45:03.936Z,31.4
2022-10-17T19:47:21.688Z,33.5
2022-10-17T19:49:39.515Z,30.5
2022-10-17T19:51:57.308Z,30.8
2022-10-17T19:54:16.378Z,33.3
2022-10-17T19:56:33.083Z,30.9
2022-10-17T19:58:50.599Z,30.8
2022-10-17T20:01:08.122Z,33.7
2022-10-17T20:03:26.002Z,30.2
2022-10-17T20:05:51.489Z,31.3
2022-10-17T20:08:09.162Z,33.6
2022-10-17T20:10:26.806Z,30.5
2022-10-17T20:12:44.522Z,30.9
2022-10-17T20:15:02.423Z,31.2
2022-10-17T20:17:19.863Z,31.3
2022-10-17T20:19:37.654Z,31.5
2022-10-17T20:21:55.249Z,31.3
2022-10-17T20:26:55.919Z,31.4
2022-10-17T20:29:14.587Z,33.4
2022-10-17T20:31:30.445Z,34
2022-10-17T20:33:48.062Z,34.3
2022-10-17T20:36:05.890Z,34.3
2022-10-17T20:40:58.155Z,34.2
2022-10-17T20:43:15.838Z,30.1
2022-10-17T20:45:43.575Z,30.2
2022-10-17T20:48:13.488Z,31.3
2022-10-17T20:50:31.198Z,30.6
2022-10-17T20:52:49.157Z,30.8
2022-10-17T20:55:21.361Z,31.2
2022-10-17T20:57:38.981Z,30.6
2022-10-17T20:59:56.416Z,33.3
2022-10-17T21:02:14.223Z,30.8
2022-10-17T21:04:55.972Z,30.7
2022-10-17T21:07:14.111Z,30.9
2022-10-17T21:09:31.922Z,31.4
2022-10-17T21:11:54.427Z,31.1
2022-10-17T21:14:12.143Z,30.8
2022-10-17T21:16:29.985Z,31.3
2022-10-17T21:18:47.627Z,31.2
2022-10-17T21:21:05.705Z,33.1
2022-10-17T21:23:22.987Z,34.1
2022-10-17T21:25:40.752Z,29.4
2022-10-17T21:27:58.252Z,30.6
2022-10-17T21:30:16.359Z,30.3
2022-10-17T21:32:51.342Z,30.7
2022-10-17T21:35:07.706Z,30.4
2022-10-17T21:37:25.453Z,31.3
2022-10-17T21:39:43.175Z,30.9
2022-10-17T21:42:00.812Z,30.9
2022-10-17T21:44:18.668Z,30.6
2022-10-17T21:46:36.254Z,31.1
2022-10-17T21:49:07.132Z,33.4
2022-10-17T21:51:24.812Z,29.4
2022-10-17T21:55:59.869Z,33.8
2022-10-17T21:58:17.553Z,29
2022-10-17T22:00:34.993Z,34
2022-10-17T22:02:52.718Z,29.4
2022-10-17T22:05:10.257Z,34.3
2022-10-17T22:07:48.992Z,29.3
2022-10-17T22:10:06.914Z,31.6
2022-10-17T22:12:24.749Z,30.6
2022-10-17T22:14:42.152Z,31
2022-10-17T22:16:59.857Z,31.2
2022-10-17T22:19:17.619Z,30.7
2022-10-17T22:21:35.466Z,30.8
2022-10-17T22:23:53.077Z,30.9
2022-10-17T22:26:11.455Z,30.4
2022-10-17T22:28:28.614Z,30.9
2022-10-17T22:30:46.194Z,31
2022-10-17T22:33:03.823Z,31.1
2022-10-17T22:35:21.570Z,31.1
2022-10-17T22:37:39.064Z,33.9
2022-10-17T22:39:56.654Z,29.1
2022-10-17T22:42:14.347Z,30.7
2022-10-17T22:44:31.786Z,33.8
2022-10-17T22:46:49.289Z,29.3
2022-10-17T22:49:07.053Z,29.6
2022-10-17T22:53:42.361Z,30
2022-10-17T22:55:59.985Z,30.1
2022-10-17T22:58:17.686Z,33.8
2022-10-17T23:00:35.055Z,29.7
2022-10-17T23:02:52.771Z,30.8
2022-10-17T23:05:10.573Z,30.4
2022-10-17T23:07:28.241Z,30.3
2022-10-17T23:09:45.781Z,29.9
2022-10-17T23:12:03.222Z,33.3
2022-10-17T23:14:20.758Z,28.5
2022-10-17T23:16:38.284Z,29.9
2022-10-17T23:18:55.950Z,28.8
2022-10-17T23:21:14.096Z,30.3
2022-10-17T23:23:31.765Z,30.1
2022-10-17T23:25:49.553Z,30.3
2022-10-17T23:28:07.203Z,30.2
2022-10-17T23:30:24.961Z,30.6
2022-10-17T23:32:42.772Z,30.4
2022-10-17T23:35:00.248Z,30.4
2022-10-17T23:39:35.638Z,29.6
2022-10-17T23:41:53.362Z,33.2
2022-10-17T23:44:11.197Z,34.1
2022-10-17T23:46:28.735Z,29.9
2022-10-17T23:48:46.391Z,34.4
2022-10-17T23:51:04.090Z,29.8
2022-10-17T23:53:21.673Z,29.5
2022-10-17T23:55:39.261Z,33.8
2022-10-17T23:57:57.030Z,34.3
